WAGO2: Chouteau Lock And Dam (L&D 17)

Data processed at Sat Dec 09 2017 23:34


All information presented herein is the property of the government of the United States of America and may be revised or deleted at any time without prior notice.
Dissemination of this information without the expressed written consent of the Public Affairs Office, Tulsa District U.S. Army Corps of Engineers is strictly prohibited.
These data are gathered electronically and, as presented, have not undergone any form of quality control. These data are not guaranteed to be valid or correct.
Go to home page.
Go to station list.

Upstream stations:

Downstream station:
Previous Day
Next Day
Current Day
    
SHEF ID:       WAGO2     Chouteau Lock And Dam (L&D 17)
STATION TYPE:  NAVIGATION LOCK
Normal Pool:  Bottom =   511.50, Top =   511.50

               PRECIP ELEVATION   STORAGE   TW-ELEV    INFLOW   RELEASE  AIR-TEMP  WIND-DIRWIND-SPEED REL-HUMID SOLAR-RAD   VOLTAGE  BAT-LOAD
                   in        ft     ac-ft        ft       cfs       cfs         F       deg       mph         %      W/m2      volt      volt
              Ccp-Rev   Ccp-Rev   Ccp-Rev   Ccp-Rev  Regi-Rev  Regi-Rev   Ccp-Rev   Ccp-Rev   Ccp-Rev   Ccp-Rev   Ccp-Rev   Ccp-Rev   Ccp-Rev
(US/Central)
12/07 00:00      0.00    511.95     24726    490.05       412         0     32.23      1.70      0.30     92.97      0.00     13.57     13.06
12/07 01:00      0.00    511.94     24704    490.07       412         0     34.07    358.60      3.80     72.80      0.00     13.57     13.07
12/07 02:00      0.00    511.99     24817    489.93       467         0     34.16    348.90      6.80     65.62      0.00     13.52     13.03
12/07 03:00      0.00    511.95     24726    489.86       183         0     33.48    349.20     11.50     67.53      0.00     13.56     13.05
12/07 04:00      0.00    511.96     24749    489.81       183         0     31.46    350.40     11.50     64.72      0.00     13.57     13.06
12/07 05:00      0.00    511.99     24817    489.87       183         0     28.96    355.40      9.60     60.45      0.00     13.59     13.03
12/07 06:00      0.00    511.99     24817    490.06       183         0     27.93    349.70      8.00     61.93      0.00     13.57     13.06
12/07 07:00      0.00    512.00     24840    490.32       128         0     25.70    347.20      7.50     67.97      0.00     13.58     13.06
12/07 08:00      0.00    511.98     24795    490.10         0         0     24.15    348.30      7.30     69.45      8.20     13.37     13.05
12/07 09:00      0.00    512.02     24892    489.75         4         0     24.93    349.50      9.90     63.63    151.80     13.58     13.05
12/07 10:00      0.00    512.00     24840    489.71         6         0     26.04    350.30     12.90     54.37    309.40     13.35     13.06
12/07 11:00      0.00    511.98     24795    489.91         6         0     27.81    345.20     11.40     51.63    455.50     13.51     13.07
12/07 12:00      0.00    512.01     24866    490.24         6         0     29.61    348.70     11.40     47.99    543.70     13.54     13.08
12/07 13:00      0.00    512.01     24866    490.19         6         0     31.19    346.90     11.80     44.93    571.30     13.55     13.05
12/07 14:00      0.00    511.99     24817    489.70         2         0     32.65    335.00     10.70     40.62    536.10     13.55     13.09
12/07 15:00      0.00    511.98     24795    489.53         0         0     33.37    337.50     11.90     37.57    440.50     13.60     13.05
12/07 16:00      0.00    511.99     24817    489.50        32         0     33.84    338.50     10.70     34.57    293.20     13.59     13.05
12/07 17:00      0.00    511.98     24795    489.50        32         0     32.50    343.90      7.40     36.56     52.20     13.56     13.06
12/07 18:00      0.00    511.97     24772    489.54        32         0     30.85    345.40      3.40     42.85      0.00     13.58     13.05
12/07 19:00      0.00    511.97     24772    489.62        32         0     28.74    306.00      0.50     48.02      0.00     13.54     13.06
12/07 20:00      0.00    512.02     24892    489.43        32         0     26.92    300.90      1.40     52.91      0.00     13.56     13.09
12/07 21:00      0.00    511.91     24636    489.57         1         0     25.14    294.40      0.70     61.70      0.00     13.57     13.09
12/07 22:00      0.00    511.95     24726    489.66         1         0     23.11    290.30      1.00     68.65      0.00     13.55     13.07
12/07 23:00      0.00    511.96     24749    489.52         1         0     21.45    304.40      1.30     79.32      0.00     13.54     13.06